createdAt,value
2023-06-28T00:01:03.686Z,98317.28
2023-06-28T00:06:05.484Z,98316.66
2023-06-28T00:11:07.729Z,98312.63
2023-06-28T00:16:09.455Z,98313.63
2023-06-28T00:21:14.818Z,98311.00
2023-06-28T00:26:16.749Z,98309.00
2023-06-28T00:31:18.855Z,98303.38
2023-06-28T00:36:21.541Z,98303.38
2023-06-28T00:41:23.420Z,98306.97
2023-06-28T00:46:25.257Z,98306.97
2023-06-28T00:51:28.443Z,98309.00
2023-06-28T00:56:30.799Z,98312.00
2023-06-28T01:01:33.249Z,98314.22
2023-06-28T01:06:36.816Z,98317.03
2023-06-28T01:11:39.840Z,98315.84
2023-06-28T01:16:41.720Z,98311.00
2023-06-28T01:21:46.303Z,98316.63
2023-06-28T01:26:53.398Z,98327.50
2023-06-28T01:31:56.143Z,98324.47
2023-06-28T01:37:01.022Z,98325.66
2023-06-28T01:42:04.158Z,98333.72
2023-06-28T01:47:07.110Z,98329.69
2023-06-28T01:52:09.267Z,98333.91
2023-06-28T01:57:12.565Z,98331.09
2023-06-28T02:02:14.734Z,98328.06
2023-06-28T02:07:16.544Z,98337.13
2023-06-28T02:12:20.553Z,98328.66
2023-06-28T02:17:23.309Z,98339.94
2023-06-28T02:22:26.918Z,98338.31
2023-06-28T02:27:29.012Z,98339.94
2023-06-28T02:32:32.119Z,98345.97
2023-06-28T02:37:34.127Z,98348.78
2023-06-28T02:42:36.613Z,98350.81
2023-06-28T02:47:39.471Z,98342.34
2023-06-28T02:52:42.770Z,98350.78
2023-06-28T02:57:46.568Z,98343.31
2023-06-28T03:02:50.509Z,98338.28
2023-06-28T03:07:53.827Z,98342.72
2023-06-28T03:12:57.722Z,98342.28
2023-06-28T03:17:59.589Z,98352.75
2023-06-28T03:23:03.436Z,98350.13
2023-06-28T03:28:05.324Z,98352.75
2023-06-28T03:33:08.123Z,98343.91
2023-06-28T03:38:09.949Z,98358.81
2023-06-28T03:43:11.851Z,98353.56
2023-06-28T03:48:13.888Z,98357.81
2023-06-28T03:53:15.634Z,98356.00
2023-06-28T03:58:17.337Z,98357.41
2023-06-28T04:03:20.335Z,98360.84
2023-06-28T04:08:25.545Z,98358.22
2023-06-28T04:13:30.349Z,98364.88
2023-06-28T04:18:32.128Z,98370.50
2023-06-28T04:23:33.944Z,98367.50
2023-06-28T04:28:35.675Z,98376.97
2023-06-28T04:33:37.746Z,98368.72
2023-06-28T04:38:40.480Z,98390.47
2023-06-28T04:43:42.715Z,98387.84
2023-06-28T04:48:45.809Z,98392.66
2023-06-28T04:53:48.290Z,98398.72
2023-06-28T04:58:50.151Z,98399.50
2023-06-28T05:03:51.972Z,98398.28
2023-06-28T05:08:53.826Z,98402.31
2023-06-28T05:13:55.575Z,98403.53
2023-06-28T05:18:57.315Z,98405.34
2023-06-28T05:24:00.187Z,98399.50
2023-06-28T05:29:01.972Z,98410.56
2023-06-28T05:34:04.490Z,98405.13
2023-06-28T05:39:06.592Z,98401.56
2023-06-28T05:44:08.788Z,98392.75
2023-06-28T05:49:10.826Z,98401.25
2023-06-28T05:54:12.756Z,98402.50
2023-06-28T05:59:15.026Z,98393.44
2023-06-28T06:15:17.979Z,98405.19
2023-06-28T06:20:19.692Z,98410.25
2023-06-28T06:25:24.377Z,98407.88
2023-06-28T06:30:26.388Z,98401.41
2023-06-28T06:35:29.159Z,98402.84
2023-06-28T06:40:31.105Z,98411.91
2023-06-28T06:45:33.092Z,98417.16
2023-06-28T06:50:35.970Z,98420.38
2023-06-28T06:55:39.160Z,98415.53
2023-06-28T07:00:41.663Z,98415.34
2023-06-28T07:05:44.792Z,98422.00
2023-06-28T07:10:47.125Z,98422.19
2023-06-28T07:15:49.052Z,98423.44
2023-06-28T07:20:50.987Z,98422.41
2023-06-28T07:25:53.145Z,98429.25
2023-06-28T07:30:56.206Z,98425.22
2023-06-28T07:35:58.307Z,98423.00
2023-06-28T07:41:00.374Z,98422.38
2023-06-28T07:46:04.945Z,98432.91
2023-06-28T07:51:07.146Z,98421.59
2023-06-28T07:56:09.203Z,98430.66
2023-06-28T08:01:11.349Z,98424.78
2023-06-28T08:06:13.401Z,98418.25
2023-06-28T08:11:15.259Z,98409.28
2023-06-28T08:16:17.788Z,98415.69
2023-06-28T08:21:19.852Z,98416.84
2023-06-28T08:26:22.040Z,98418.19
2023-06-28T08:31:24.126Z,98411.25
2023-06-28T08:36:26.355Z,98411.84
2023-06-28T08:41:28.898Z,98407.88
2023-06-28T08:46:32.257Z,98406.22
2023-06-28T08:51:36.154Z,98417.94
2023-06-28T08:56:48.236Z,98406.13
2023-06-28T09:01:57.115Z,98402.06
2023-06-28T09:06:59.558Z,98405.81
2023-06-28T09:12:01.968Z,98408.31
2023-06-28T09:17:04.061Z,98405.97
2023-06-28T09:22:06.608Z,98403.75
2023-06-28T09:27:13.616Z,98405.66
2023-06-28T09:32:15.519Z,98387.81
2023-06-28T09:37:17.466Z,98390.28
2023-06-28T09:42:23.237Z,98381.00
2023-06-28T09:47:33.400Z,98387.66
2023-06-28T09:52:38.444Z,98383.41
2023-06-28T09:57:42.250Z,98379.50
2023-06-28T10:02:45.079Z,98384.81
2023-06-28T10:07:50.355Z,98375.97
2023-06-28T10:12:53.897Z,98382.56
2023-06-28T10:17:56.294Z,98385.19
2023-06-28T10:22:59.003Z,98379.84
2023-06-28T10:28:02.056Z,98376.97
2023-06-28T10:33:04.469Z,98374.06
2023-06-28T10:38:12.572Z,98369.38
2023-06-28T10:43:26.876Z,98369.19
2023-06-28T10:48:29.218Z,98375.69
2023-06-28T10:53:31.122Z,98368.25
2023-06-28T10:58:43.860Z,98374.59
2023-06-28T11:03:46.777Z,98364.56
2023-06-28T11:08:49.533Z,98360.31
2023-06-28T11:13:51.435Z,98363.06
2023-06-28T11:18:54.467Z,98362.50
2023-06-28T11:23:57.452Z,98359.31
2023-06-28T11:29:02.295Z,98371.28
2023-06-28T11:34:04.533Z,98363.50
2023-06-28T11:39:08.466Z,98354.69
2023-06-28T11:44:10.815Z,98357.91
2023-06-28T11:49:12.857Z,98358.16
2023-06-28T11:54:14.678Z,98351.88
2023-06-28T11:59:20.786Z,98360.41
2023-06-28T12:04:24.099Z,98354.09
2023-06-28T12:09:32.046Z,98363.84
2023-06-28T12:14:41.429Z,98359.72
2023-06-28T12:19:43.333Z,98350.66
2023-06-28T12:24:45.379Z,98367.66
2023-06-28T12:29:47.314Z,98369.94
2023-06-28T12:34:51.022Z,98347.56
2023-06-28T12:39:52.781Z,98355.72
2023-06-28T12:44:56.712Z,98369.38
2023-06-28T12:49:59.270Z,98360.06
2023-06-28T12:55:01.347Z,98369.47
2023-06-28T13:00:03.602Z,98366.50
2023-06-28T13:05:05.830Z,98358.94
2023-06-28T13:10:10.701Z,98352.94
2023-06-28T13:15:13.405Z,98368.09
2023-06-28T13:20:15.275Z,98366.81
2023-06-28T13:25:18.042Z,98362.22
2023-06-28T13:30:21.684Z,98348.91
2023-06-28T13:35:23.559Z,98351.19
2023-06-28T13:40:26.602Z,98363.13
2023-06-28T13:45:28.510Z,98365.50
2023-06-28T13:50:30.630Z,98351.25
2023-06-28T13:55:32.506Z,98354.75
2023-06-28T14:00:35.878Z,98359.31
2023-06-28T14:05:37.832Z,98361.06
2023-06-28T14:10:39.974Z,98360.22
2023-06-28T14:15:45.330Z,98357.22
2023-06-28T14:20:47.751Z,98350.06
2023-06-28T14:25:49.829Z,98356.91
2023-06-28T14:30:52.083Z,98354.59
2023-06-28T14:35:56.006Z,98346.00
2023-06-28T14:40:58.309Z,98353.31
2023-06-28T14:46:00.226Z,98344.69
2023-06-28T14:51:04.432Z,98343.03
2023-06-28T14:56:06.634Z,98332.38
2023-06-28T15:01:08.456Z,98333.88
2023-06-28T15:06:12.390Z,98332.19
2023-06-28T15:11:15.172Z,98337.47
2023-06-28T15:21:22.387Z,98334.84
2023-06-28T15:26:24.937Z,98329.13
2023-06-28T15:31:27.974Z,98339.47
2023-06-28T15:36:29.707Z,98330.84
2023-06-28T15:41:31.747Z,98332.69
2023-06-28T15:46:34.582Z,98323.47
2023-06-28T15:51:36.687Z,98327.28
2023-06-28T15:56:39.964Z,98315.59
2023-06-28T16:01:41.703Z,98330.97
2023-06-28T16:06:43.534Z,98322.81
2023-06-28T16:11:45.308Z,98323.72
2023-06-28T16:16:48.528Z,98321.88
2023-06-28T16:21:50.713Z,98320.03
2023-06-28T16:26:52.516Z,98326.69
2023-06-28T16:31:54.369Z,98335.88
2023-06-28T16:36:56.386Z,98331.63
2023-06-28T16:41:58.218Z,98336.13
2023-06-28T16:47:01.982Z,98342.91
2023-06-28T16:52:04.158Z,98338.00
2023-06-28T16:57:06.118Z,98336.88
2023-06-28T17:02:08.090Z,98345.50
2023-06-28T17:07:10.129Z,98344.38
2023-06-28T17:12:12.074Z,98347.50
2023-06-28T17:17:14.277Z,98345.31
2023-06-28T17:22:15.978Z,98353.94
2023-06-28T17:27:19.303Z,98357.25
2023-06-28T17:32:21.070Z,98358.19
2023-06-28T17:37:22.885Z,98355.44
2023-06-28T17:42:24.913Z,98350.63
2023-06-28T17:47:26.869Z,98366.94
2023-06-28T17:52:28.690Z,98352.59
2023-06-28T17:57:30.834Z,98363.84
2023-06-28T18:02:33.259Z,98363.97
2023-06-28T18:07:35.466Z,98363.84
2023-06-28T18:12:38.181Z,98361.69
2023-06-28T18:17:40.402Z,98362.94
2023-06-28T18:22:42.262Z,98368.69
2023-06-28T18:27:44.491Z,98373.38
2023-06-28T18:32:47.971Z,98375.69
2023-06-28T18:37:49.980Z,98376.38
2023-06-28T18:42:51.952Z,98382.91
2023-06-28T18:47:58.877Z,98386.47
2023-06-28T18:53:00.880Z,98382.56
2023-06-28T18:58:02.758Z,98383.88
2023-06-28T19:03:04.605Z,98389.28
2023-06-28T19:08:06.461Z,98399.69
2023-06-28T19:13:08.345Z,98387.63
2023-06-28T19:18:10.418Z,98403.34
2023-06-28T19:23:12.309Z,98398.38
2023-06-28T19:28:14.341Z,98404.00
2023-06-28T19:33:16.954Z,98405.00
2023-06-28T19:38:19.024Z,98403.91
2023-06-28T19:43:20.907Z,98415.00
2023-06-28T19:48:22.882Z,98422.34
2023-06-28T19:53:24.981Z,98424.25
2023-06-28T19:58:26.688Z,98424.56
2023-06-28T20:03:28.650Z,98422.22
2023-06-28T20:08:42.220Z,98428.38
2023-06-28T20:13:43.977Z,98426.03
2023-06-28T20:18:45.766Z,98427.91
2023-06-28T20:23:50.002Z,98446.41
2023-06-28T20:28:52.001Z,98439.16
2023-06-28T20:33:54.792Z,98440.41
2023-06-28T20:38:56.504Z,98441.63
2023-06-28T20:43:58.351Z,98436.22
2023-06-28T20:49:00.078Z,98431.81
2023-06-28T20:54:02.386Z,98438.97
2023-06-28T20:59:04.203Z,98444.47
2023-06-28T21:04:06.244Z,98438.25
2023-06-28T21:09:08.190Z,98444.16
2023-06-28T21:14:10.003Z,98451.66
2023-06-28T21:19:13.817Z,98451.28
2023-06-28T21:24:16.204Z,98450.91
2023-06-28T21:29:18.246Z,98447.31
2023-06-28T21:34:20.050Z,98448.53
2023-06-28T21:39:21.883Z,98450.78
2023-06-28T21:44:24.026Z,98440.69
2023-06-28T21:49:25.806Z,98451.84
2023-06-28T21:54:27.557Z,98454.09
2023-06-28T21:59:32.511Z,98455.53
2023-06-28T22:04:34.278Z,98455.16
2023-06-28T22:09:36.167Z,98454.75
2023-06-28T22:14:43.606Z,98458.81
2023-06-28T22:19:45.475Z,98449.75
2023-06-28T22:24:47.301Z,98446.94
2023-06-28T22:29:51.999Z,98450.00
2023-06-28T22:34:53.818Z,98452.25
2023-06-28T22:39:58.591Z,98453.47
2023-06-28T22:45:01.009Z,98452.47
2023-06-28T22:50:02.975Z,98457.34
2023-06-28T22:55:05.409Z,98448.25
2023-06-28T23:00:09.296Z,98452.28
2023-06-28T23:05:11.087Z,98455.34
2023-06-28T23:10:17.872Z,98450.72
2023-06-28T23:15:19.835Z,98451.34
2023-06-28T23:20:21.673Z,98455.38
2023-06-28T23:25:23.456Z,98456.00
2023-06-28T23:30:25.206Z,98447.75
2023-06-28T23:35:28.288Z,98450.19
2023-06-28T23:40:30.220Z,98450.38
2023-06-28T23:45:32.049Z,98454.22
2023-06-28T23:50:33.846Z,98444.13
2023-06-28T23:55:35.900Z,98459.50
